createdAt,value
2023-04-02T00:01:02.288Z,69.00
2023-04-02T00:03:42.609Z,69.73
2023-04-02T00:06:33.118Z,68.91
2023-04-02T00:09:14.985Z,68.53
2023-04-02T00:11:48.541Z,68.43
2023-04-02T00:14:27.700Z,69.00
2023-04-02T00:16:56.089Z,68.32
2023-04-02T00:19:31.331Z,69.29
2023-04-02T00:21:58.989Z,69.40
2023-04-02T00:24:25.479Z,68.48
2023-04-02T00:26:53.325Z,67.30
2023-04-02T00:29:20.252Z,67.27
2023-04-02T00:31:52.315Z,67.99
2023-04-02T00:34:31.068Z,67.81
2023-04-02T00:37:01.950Z,67.36
2023-04-02T00:39:38.506Z,68.10
2023-04-02T00:42:08.973Z,67.85
2023-04-02T00:44:43.501Z,68.04
2023-04-02T00:47:28.111Z,67.82
2023-04-02T00:49:59.854Z,68.00
2023-04-02T00:52:31.036Z,69.02
2023-04-02T00:55:10.488Z,67.90
2023-04-02T00:57:37.238Z,67.42
2023-04-02T01:00:34.184Z,68.72
2023-04-02T01:03:34.499Z,68.71
2023-04-02T01:06:16.079Z,68.81
2023-04-02T01:08:54.942Z,68.13
2023-04-02T01:11:32.362Z,67.75
2023-04-02T01:14:36.829Z,69.16
2023-04-02T01:17:30.623Z,67.03
2023-04-02T01:20:09.591Z,67.68
2023-04-02T01:22:59.842Z,68.60
2023-04-02T01:25:42.164Z,67.99
2023-04-02T01:28:13.111Z,68.70
2023-04-02T01:30:41.535Z,68.44
2023-04-02T01:33:08.315Z,67.78
2023-04-02T01:35:39.041Z,69.78
2023-04-02T01:38:13.981Z,68.43
2023-04-02T01:41:04.533Z,68.99
2023-04-02T01:43:38.018Z,69.33
2023-04-02T01:46:24.633Z,68.85
2023-04-02T01:48:53.067Z,68.41
2023-04-02T01:51:32.645Z,68.50
2023-04-02T01:54:04.995Z,68.93
2023-04-02T01:56:31.600Z,68.90
2023-04-02T01:58:58.933Z,69.16
2023-04-02T02:01:42.108Z,70.79
2023-04-02T02:04:12.715Z,69.99
2023-04-02T02:06:39.543Z,71.41
2023-04-02T02:09:07.505Z,72.05
2023-04-02T02:11:36.439Z,71.76
2023-04-02T02:14:15.729Z,70.85
2023-04-02T02:16:42.703Z,70.95
2023-04-02T02:19:24.176Z,70.69
2023-04-02T02:21:53.274Z,70.91
2023-04-02T02:24:29.372Z,70.79
2023-04-02T02:27:08.753Z,71.36
2023-04-02T02:29:37.316Z,69.18
2023-04-02T02:32:04.833Z,71.18
2023-04-02T02:34:36.274Z,71.54
2023-04-02T02:37:07.268Z,71.33
2023-04-02T02:39:37.795Z,70.53
2023-04-02T02:42:14.767Z,71.43
2023-04-02T02:44:44.467Z,70.39
2023-04-02T02:47:16.669Z,70.29
2023-04-02T02:49:50.019Z,70.42
2023-04-02T02:52:19.707Z,69.83
2023-04-02T02:54:52.525Z,69.11
2023-04-02T02:57:23.372Z,68.97
2023-04-02T02:59:51.773Z,68.86
2023-04-02T03:02:19.181Z,68.94
2023-04-02T03:04:47.650Z,68.65
2023-04-02T03:07:16.195Z,69.09
2023-04-02T03:10:11.942Z,68.83
2023-04-02T03:12:51.390Z,68.69
2023-04-02T03:15:32.214Z,69.77
2023-04-02T03:18:12.049Z,69.45
2023-04-02T03:20:45.634Z,68.60
2023-04-02T03:23:27.822Z,67.96
2023-04-02T03:26:00.349Z,68.45
2023-04-02T03:28:31.256Z,68.32
2023-04-02T03:31:04.226Z,67.77
2023-04-02T03:33:59.602Z,67.33
2023-04-02T03:36:38.334Z,67.86
2023-04-02T03:39:46.494Z,66.74
2023-04-02T03:42:22.850Z,67.08
2023-04-02T03:44:56.290Z,68.24
2023-04-02T03:47:33.825Z,67.39
2023-04-02T03:50:07.734Z,67.60
2023-04-02T03:52:37.000Z,67.76
2023-04-02T03:55:30.240Z,68.53
2023-04-02T03:58:01.866Z,68.32
2023-04-02T04:00:52.357Z,68.22
2023-04-02T04:03:43.091Z,67.32
2023-04-02T04:06:13.991Z,67.62
2023-04-02T04:08:51.716Z,67.36
2023-04-02T04:11:24.476Z,68.10
2023-04-02T04:14:17.794Z,68.14
2023-04-02T04:17:16.874Z,68.66
2023-04-02T04:19:46.601Z,67.81
2023-04-02T04:22:33.645Z,67.79
2023-04-02T04:25:06.529Z,67.88
2023-04-02T04:27:54.822Z,68.84
2023-04-02T04:30:28.679Z,68.44
2023-04-02T04:32:58.992Z,67.83
2023-04-02T04:35:32.735Z,68.22
2023-04-02T04:38:27.754Z,68.18
2023-04-02T04:40:57.622Z,68.13
2023-04-02T04:43:51.990Z,66.94
2023-04-02T04:46:23.478Z,67.48
2023-04-02T04:49:08.721Z,67.42
2023-04-02T04:51:44.476Z,67.81
2023-04-02T04:54:15.800Z,69.05
2023-04-02T04:56:47.222Z,68.69
2023-04-02T04:59:27.701Z,68.85
2023-04-02T05:02:02.968Z,69.52
2023-04-02T05:04:34.995Z,69.59
2023-04-02T05:07:21.952Z,69.12
2023-04-02T05:10:24.652Z,69.37
2023-04-02T05:12:54.077Z,70.97
2023-04-02T05:15:27.515Z,69.71
2023-04-02T05:18:08.603Z,70.60
2023-04-02T05:20:41.865Z,69.90
2023-04-02T05:23:20.628Z,69.49
2023-04-02T05:25:58.889Z,70.27
2023-04-02T05:28:36.127Z,70.55
2023-04-02T05:31:04.300Z,71.08
2023-04-02T05:33:33.283Z,70.81
2023-04-02T05:36:08.887Z,70.87
2023-04-02T05:38:38.020Z,70.94
2023-04-02T05:41:16.039Z,70.59
2023-04-02T05:43:46.616Z,69.81
2023-04-02T05:46:25.670Z,70.15
2023-04-02T05:48:56.114Z,69.18
2023-04-02T05:51:28.904Z,69.56
2023-04-02T05:53:58.447Z,70.62
2023-04-02T05:56:37.197Z,70.33
2023-04-02T05:59:08.416Z,70.57
2023-04-02T06:01:45.601Z,70.11
2023-04-02T06:04:29.848Z,70.82
2023-04-02T06:07:19.615Z,70.06
2023-04-02T06:09:50.900Z,70.68
2023-04-02T06:12:31.880Z,70.68
2023-04-02T06:14:58.426Z,69.92
2023-04-02T06:17:25.633Z,70.74
2023-04-02T06:19:53.415Z,70.50
2023-04-02T06:22:33.205Z,69.66
2023-04-02T06:25:03.850Z,69.19
2023-04-02T06:27:30.746Z,69.91
2023-04-02T06:30:01.406Z,68.94
2023-04-02T06:32:28.132Z,68.84
2023-04-02T06:34:54.939Z,68.37
2023-04-02T06:37:27.504Z,68.75
2023-04-02T06:39:54.834Z,67.53
2023-04-02T06:42:25.519Z,68.47
2023-04-02T06:44:52.240Z,68.18
2023-04-02T06:47:33.895Z,67.43
2023-04-02T06:50:05.293Z,66.43
2023-04-02T06:52:36.510Z,65.69
2023-04-02T06:55:21.304Z,66.32
2023-04-02T06:57:48.480Z,65.49
2023-04-02T07:00:46.062Z,65.65
2023-04-02T07:03:30.614Z,65.77
2023-04-02T07:05:58.220Z,65.13
2023-04-02T07:08:24.811Z,65.13
2023-04-02T07:10:51.341Z,65.73
2023-04-02T07:13:24.657Z,65.69
2023-04-02T07:15:53.153Z,65.44
2023-04-02T07:18:30.874Z,64.83
2023-04-02T07:20:57.835Z,64.09
2023-04-02T07:23:24.969Z,63.28
2023-04-02T07:25:53.276Z,64.72
2023-04-02T07:28:22.445Z,63.93
2023-04-02T07:30:49.607Z,62.90
2023-04-02T07:33:17.589Z,63.62
2023-04-02T07:35:44.644Z,61.62
2023-04-02T07:38:11.259Z,61.97
2023-04-02T07:40:38.085Z,61.00
2023-04-02T07:43:05.865Z,61.25
2023-04-02T07:45:32.452Z,61.04
2023-04-02T07:48:11.630Z,60.73
2023-04-02T07:50:38.498Z,60.78
2023-04-02T07:53:05.280Z,59.18
2023-04-02T07:55:32.035Z,60.10
2023-04-02T07:57:59.689Z,60.30
2023-04-02T08:00:29.130Z,58.21
2023-04-02T08:02:56.203Z,57.78
2023-04-02T08:05:22.925Z,59.20
2023-04-02T08:07:54.537Z,57.31
2023-04-02T08:10:21.449Z,56.85
2023-04-02T08:12:54.707Z,57.13
2023-04-02T08:15:21.771Z,56.12
2023-04-02T08:17:48.466Z,55.81
2023-04-02T08:20:18.637Z,55.82
2023-04-02T08:22:50.183Z,56.30
2023-04-02T08:25:16.803Z,56.25
2023-04-02T08:27:47.458Z,54.72
2023-04-02T08:30:17.534Z,55.23
2023-04-02T08:32:44.344Z,55.74
2023-04-02T08:35:13.164Z,55.57
2023-04-02T08:37:39.641Z,55.00
2023-04-02T08:40:07.650Z,53.84
2023-04-02T08:42:46.192Z,52.63
2023-04-02T08:45:37.600Z,54.20
2023-04-02T08:48:05.504Z,54.52
2023-04-02T08:50:39.001Z,52.89
2023-04-02T08:53:11.068Z,52.88
2023-04-02T08:55:52.739Z,51.46
2023-04-02T08:58:37.950Z,52.58
2023-04-02T09:01:06.022Z,52.41
2023-04-02T09:03:38.863Z,53.02
2023-04-02T09:06:07.672Z,53.18
2023-04-02T09:08:35.484Z,51.28
2023-04-02T09:11:18.484Z,52.18
2023-04-02T09:13:46.670Z,50.22
2023-04-02T09:16:16.375Z,50.99
2023-04-02T09:18:44.523Z,51.46
2023-04-02T09:21:28.256Z,50.98
2023-04-02T09:23:55.095Z,50.48
2023-04-02T09:26:29.992Z,49.01
2023-04-02T09:29:19.125Z,50.34
2023-04-02T09:31:50.492Z,50.37
2023-04-02T09:34:31.521Z,50.09
2023-04-02T09:37:07.353Z,50.21
2023-04-02T09:39:35.553Z,51.33
2023-04-02T09:42:06.822Z,51.27
2023-04-02T09:44:35.557Z,51.30
2023-04-02T09:47:10.264Z,51.13
2023-04-02T09:49:38.701Z,51.33
2023-04-02T09:52:11.322Z,51.58
2023-04-02T09:54:41.725Z,51.48
2023-04-02T09:57:25.025Z,51.13
2023-04-02T10:00:32.529Z,50.74
2023-04-02T10:03:13.430Z,51.66
2023-04-02T10:05:40.967Z,51.08
2023-04-02T10:08:20.493Z,50.44
2023-04-02T10:10:51.048Z,48.07
2023-04-02T10:13:20.509Z,49.64
2023-04-02T10:16:04.650Z,49.76
2023-04-02T10:18:41.779Z,49.12
2023-04-02T10:21:14.022Z,48.04
2023-04-02T10:23:40.579Z,47.64
2023-04-02T10:26:29.607Z,48.43
2023-04-02T10:29:04.426Z,48.46
2023-04-02T10:31:38.886Z,48.07
2023-04-02T10:34:13.017Z,50.24
2023-04-02T10:36:55.369Z,49.18
2023-04-02T10:39:26.190Z,48.23
2023-04-02T10:42:03.812Z,48.59
2023-04-02T10:44:56.361Z,48.07
2023-04-02T10:47:35.741Z,48.21
2023-04-02T10:50:21.045Z,46.51
2023-04-02T10:53:14.863Z,47.30
2023-04-02T10:55:45.054Z,47.23
2023-04-02T10:58:24.296Z,45.66
2023-04-02T11:00:54.183Z,44.34
2023-04-02T11:03:32.101Z,45.85
2023-04-02T11:06:01.301Z,45.44
2023-04-02T11:08:44.534Z,44.47
2023-04-02T11:11:16.531Z,45.29
2023-04-02T11:14:06.036Z,46.79
2023-04-02T11:16:33.479Z,46.67
2023-04-02T11:19:15.599Z,42.62
2023-04-02T11:21:58.748Z,43.44
2023-04-02T11:24:32.945Z,41.92
2023-04-02T11:27:34.869Z,41.98
2023-04-02T11:30:04.887Z,44.04
2023-04-02T11:32:33.757Z,42.58
2023-04-02T11:35:31.995Z,42.31
2023-04-02T11:38:10.898Z,44.29
2023-04-02T11:40:45.190Z,45.36
2023-04-02T11:43:35.325Z,45.88
2023-04-02T11:46:37.060Z,43.95
2023-04-02T11:49:38.306Z,45.67
2023-04-02T11:52:11.919Z,45.79
2023-04-02T11:54:39.435Z,43.28
2023-04-02T11:57:39.981Z,42.46
2023-04-02T12:00:31.499Z,43.39
2023-04-02T12:03:10.076Z,44.50
2023-04-02T12:05:43.099Z,44.45
2023-04-02T12:08:54.325Z,44.33
2023-04-02T12:11:38.279Z,46.31
2023-04-02T12:14:30.421Z,46.22
2023-04-02T12:16:57.289Z,45.55
2023-04-02T12:19:24.292Z,45.08
2023-04-02T12:21:53.103Z,45.53
2023-04-02T12:24:24.119Z,46.66
2023-04-02T12:27:08.609Z,46.42
2023-04-02T12:29:36.290Z,45.76
2023-04-02T12:32:04.048Z,46.81
2023-04-02T12:34:31.105Z,46.01
2023-04-02T12:37:04.665Z,48.28
2023-04-02T12:39:42.008Z,49.31
2023-04-02T12:42:27.124Z,48.39
2023-04-02T12:44:53.758Z,48.03
2023-04-02T12:47:20.413Z,49.25
2023-04-02T12:49:47.106Z,48.22
2023-04-02T12:52:16.381Z,49.07
2023-04-02T12:54:51.770Z,47.55
2023-04-02T12:57:27.480Z,46.97
2023-04-02T12:59:55.122Z,49.33
2023-04-02T13:02:24.093Z,51.08
2023-04-02T13:04:56.046Z,50.32
2023-04-02T13:07:27.900Z,50.09
2023-04-02T13:09:56.199Z,48.29
2023-04-02T13:12:35.395Z,48.25
2023-04-02T13:15:04.559Z,50.72
2023-04-02T13:17:45.873Z,50.27
2023-04-02T13:20:58.131Z,51.19
2023-04-02T13:23:27.167Z,48.21
2023-04-02T13:25:53.727Z,50.27
2023-04-02T13:28:20.891Z,51.21
2023-04-02T13:30:47.999Z,51.52
2023-04-02T13:33:15.314Z,50.64
2023-04-02T13:35:42.172Z,48.84
2023-04-02T13:38:08.802Z,50.02
2023-04-02T13:40:37.350Z,51.62
2023-04-02T13:43:05.134Z,49.83
2023-04-02T13:45:35.036Z,47.88
2023-04-02T13:48:02.012Z,47.78
2023-04-02T13:50:30.732Z,48.50
2023-04-02T13:52:58.817Z,50.40
2023-04-02T13:55:28.469Z,51.40
2023-04-02T13:57:55.922Z,49.59
2023-04-02T14:00:22.714Z,49.06
2023-04-02T14:02:52.270Z,48.36
2023-04-02T14:05:28.334Z,49.30
2023-04-02T14:08:17.348Z,49.87
2023-04-02T14:11:03.163Z,49.49
2023-04-02T14:13:37.912Z,49.22
2023-04-02T14:16:28.027Z,49.64
2023-04-02T14:19:03.585Z,50.01
2023-04-02T14:21:40.894Z,49.54
2023-04-02T14:24:13.230Z,49.26
2023-04-02T14:26:55.014Z,48.27
2023-04-02T14:29:40.468Z,48.35
2023-04-02T14:32:17.558Z,49.61
2023-04-02T14:34:51.157Z,49.36
2023-04-02T14:37:39.579Z,49.89
2023-04-02T14:40:43.825Z,50.43
2023-04-02T14:43:22.397Z,49.93
2023-04-02T14:46:02.130Z,49.75
2023-04-02T14:48:54.419Z,50.02
2023-04-02T14:51:51.586Z,49.82
2023-04-02T14:54:27.699Z,49.03
2023-04-02T14:56:57.805Z,49.96
2023-04-02T14:59:49.323Z,48.53
2023-04-02T15:02:20.901Z,49.22
2023-04-02T15:04:55.842Z,50.12
2023-04-02T15:07:24.624Z,50.81
2023-04-02T15:10:07.875Z,51.04
2023-04-02T15:12:37.223Z,51.91
2023-04-02T15:15:15.334Z,49.49
2023-04-02T15:17:41.859Z,50.36
2023-04-02T15:20:16.437Z,50.29
2023-04-02T15:23:21.524Z,50.37
2023-04-02T15:25:53.927Z,49.76
2023-04-02T15:28:29.670Z,49.18
2023-04-02T15:30:58.910Z,50.78
2023-04-02T15:33:31.445Z,50.02
2023-04-02T15:36:21.910Z,52.88
2023-04-02T15:38:53.063Z,53.03
2023-04-02T15:41:26.449Z,53.13
2023-04-02T15:43:56.636Z,53.12
2023-04-02T15:46:55.510Z,50.61
2023-04-02T15:49:53.030Z,50.65
2023-04-02T15:52:40.204Z,51.19
2023-04-02T15:55:25.682Z,52.43
2023-04-02T15:58:17.210Z,54.27
2023-04-02T16:01:02.519Z,54.09
2023-04-02T16:04:00.088Z,55.09
2023-04-02T16:07:03.668Z,53.79
2023-04-02T16:09:46.605Z,54.26
2023-04-02T16:12:18.476Z,55.35
2023-04-02T16:14:46.629Z,54.92
2023-04-02T16:17:27.398Z,55.72
2023-04-02T16:20:22.624Z,56.23
2023-04-02T16:23:07.322Z,55.92
2023-04-02T16:25:57.328Z,54.82
2023-04-02T16:28:50.208Z,54.77
2023-04-02T16:31:25.708Z,55.47
2023-04-02T16:33:55.628Z,55.72
2023-04-02T16:36:43.058Z,54.18
2023-04-02T16:39:40.043Z,53.39
2023-04-02T16:42:14.126Z,52.21
2023-04-02T16:44:50.358Z,51.90
2023-04-02T16:47:41.159Z,52.61
2023-04-02T16:50:19.224Z,50.93
2023-04-02T16:53:06.664Z,50.72
2023-04-02T16:55:59.399Z,49.83
2023-04-02T16:58:34.748Z,49.38
2023-04-02T17:01:08.591Z,50.08
2023-04-02T17:03:53.479Z,49.60
2023-04-02T17:06:32.318Z,50.28
2023-04-02T17:09:06.155Z,49.78
2023-04-02T17:11:47.816Z,49.09
2023-04-02T17:14:41.382Z,48.85
2023-04-02T17:17:10.674Z,50.29
2023-04-02T17:19:37.326Z,49.44
2023-04-02T17:22:05.400Z,49.68
2023-04-02T17:24:52.016Z,49.63
2023-04-02T17:27:39.853Z,49.71
2023-04-02T17:30:23.996Z,50.79
2023-04-02T17:32:50.661Z,51.89
2023-04-02T17:35:34.025Z,52.14
2023-04-02T17:38:30.264Z,52.70
2023-04-02T17:41:13.663Z,53.12
2023-04-02T17:44:02.400Z,53.67
2023-04-02T17:46:38.279Z,53.20
2023-04-02T17:49:26.019Z,54.17
2023-04-02T17:51:59.917Z,53.39
2023-04-02T17:54:55.523Z,53.27
2023-04-02T17:57:35.968Z,54.04
2023-04-02T18:00:22.721Z,54.31
2023-04-02T18:03:02.270Z,54.20
2023-04-02T18:05:30.765Z,54.81
2023-04-02T18:08:14.612Z,53.98
2023-04-02T18:10:53.259Z,55.25
2023-04-02T18:13:31.676Z,54.84
2023-04-02T18:16:18.645Z,53.86
2023-04-02T18:19:06.076Z,54.30
2023-04-02T18:22:18.941Z,54.15
2023-04-02T18:25:19.617Z,54.03
2023-04-02T18:28:10.900Z,54.37
2023-04-02T18:31:13.756Z,54.55
2023-04-02T18:33:59.056Z,55.00
2023-04-02T18:37:06.624Z,55.05
2023-04-02T18:39:43.304Z,55.29
2023-04-02T18:42:31.115Z,54.70
2023-04-02T18:45:13.127Z,54.95
2023-04-02T18:47:59.653Z,54.26
2023-04-02T18:50:32.600Z,54.55
2023-04-02T18:53:02.171Z,54.79
2023-04-02T18:55:30.927Z,54.24
2023-04-02T18:58:04.711Z,54.48
2023-04-02T19:00:34.518Z,55.33
2023-04-02T19:03:07.274Z,54.79
2023-04-02T19:05:40.535Z,54.61
2023-04-02T19:08:20.907Z,55.72
2023-04-02T19:10:59.208Z,55.21
2023-04-02T19:13:26.062Z,55.31
2023-04-02T19:16:01.964Z,55.43
2023-04-02T19:18:38.047Z,56.03
2023-04-02T19:21:15.123Z,57.61
2023-04-02T19:23:57.039Z,56.56
2023-04-02T19:26:28.184Z,57.47
2023-04-02T19:28:57.991Z,57.40
2023-04-02T19:31:50.147Z,57.78
2023-04-02T19:34:29.829Z,57.21
2023-04-02T19:37:03.911Z,58.25
2023-04-02T19:39:52.445Z,58.18
2023-04-02T19:42:47.245Z,58.47
2023-04-02T19:45:19.735Z,58.21
2023-04-02T19:47:46.250Z,58.93
2023-04-02T19:50:13.341Z,59.25
2023-04-02T19:52:40.267Z,59.90
2023-04-02T19:55:07.297Z,59.34
2023-04-02T19:57:33.825Z,59.90
2023-04-02T20:00:00.384Z,59.52
2023-04-02T20:02:27.682Z,59.00
2023-04-02T20:04:54.221Z,60.48
2023-04-02T20:07:21.623Z,59.32
2023-04-02T20:09:48.154Z,59.59
2023-04-02T20:12:14.610Z,59.34
2023-04-02T20:14:41.268Z,59.74
2023-04-02T20:17:07.740Z,59.09
2023-04-02T20:19:34.337Z,59.09
2023-04-02T20:22:01.489Z,60.20
2023-04-02T20:24:28.003Z,60.37
2023-04-02T20:26:54.495Z,60.96
2023-04-02T20:29:23.171Z,60.42
2023-04-02T20:31:51.217Z,60.56
2023-04-02T20:34:18.012Z,60.64
2023-04-02T20:36:46.066Z,60.88
2023-04-02T20:39:19.069Z,60.95
2023-04-02T20:41:46.624Z,59.97
2023-04-02T20:44:13.105Z,59.95
2023-04-02T20:46:40.063Z,61.02
2023-04-02T20:49:06.937Z,60.56
2023-04-02T20:51:34.454Z,61.50
2023-04-02T20:54:00.975Z,61.23
2023-04-02T20:56:27.980Z,61.70
2023-04-02T20:58:54.906Z,61.18
2023-04-02T21:01:24.102Z,61.16
2023-04-02T21:03:57.135Z,61.73
2023-04-02T21:06:46.335Z,61.77
2023-04-02T21:09:16.585Z,61.45
2023-04-02T21:11:43.935Z,62.02
2023-04-02T21:14:12.123Z,61.64
2023-04-02T21:16:40.655Z,62.16
2023-04-02T21:19:08.521Z,62.42
2023-04-02T21:21:36.549Z,62.57
2023-04-02T21:24:05.583Z,62.43
2023-04-02T21:26:36.693Z,63.00
2023-04-02T21:29:05.642Z,62.55
2023-04-02T21:31:40.501Z,62.69
2023-04-02T21:34:09.138Z,62.06
2023-04-02T21:36:40.153Z,62.20
2023-04-02T21:39:22.800Z,62.51
2023-04-02T21:41:50.905Z,62.69
2023-04-02T21:44:21.113Z,63.29
2023-04-02T21:46:49.872Z,62.88
2023-04-02T21:49:24.328Z,63.08
2023-04-02T21:51:54.812Z,62.51
2023-04-02T21:54:22.721Z,62.37
2023-04-02T21:56:55.457Z,63.14
2023-04-02T21:59:24.222Z,63.38
2023-04-02T22:01:56.862Z,63.51
2023-04-02T22:04:25.523Z,63.73
2023-04-02T22:06:55.882Z,64.22
2023-04-02T22:09:25.131Z,64.73
2023-04-02T22:11:59.220Z,64.70
2023-04-02T22:14:26.442Z,64.78
2023-04-02T22:16:53.052Z,65.52
2023-04-02T22:19:19.673Z,66.69
2023-04-02T22:21:46.425Z,67.67
2023-04-02T22:24:14.776Z,66.86
2023-04-02T22:26:41.376Z,67.64
2023-04-02T22:29:08.173Z,66.83
2023-04-02T22:31:35.306Z,67.82
2023-04-02T22:34:02.922Z,67.57
2023-04-02T22:36:29.633Z,67.33
2023-04-02T22:39:03.821Z,66.40
2023-04-02T22:41:32.459Z,65.80
2023-04-02T22:44:04.696Z,65.51
2023-04-02T22:46:38.259Z,65.19
2023-04-02T22:49:04.879Z,66.21
2023-04-02T22:51:31.532Z,66.29
2023-04-02T22:54:02.062Z,66.09
2023-04-02T22:56:35.747Z,65.58
2023-04-02T22:59:10.304Z,66.38
2023-04-02T23:01:37.602Z,66.37
2023-04-02T23:04:06.171Z,66.80
2023-04-02T23:06:35.253Z,67.19
2023-04-02T23:09:05.470Z,67.67
2023-04-02T23:11:38.045Z,67.57
2023-04-02T23:14:05.453Z,68.47
2023-04-02T23:16:37.608Z,68.74
2023-04-02T23:19:07.057Z,68.14
2023-04-02T23:21:34.975Z,67.69
2023-04-02T23:24:01.568Z,68.11
2023-04-02T23:26:29.548Z,67.52
2023-04-02T23:28:57.466Z,66.51
2023-04-02T23:31:24.269Z,66.78
2023-04-02T23:33:52.113Z,67.18
2023-04-02T23:36:22.613Z,67.37
2023-04-02T23:38:51.453Z,66.66
2023-04-02T23:41:17.894Z,66.63
2023-04-02T23:43:44.636Z,65.96
2023-04-02T23:46:11.610Z,66.03
2023-04-02T23:48:38.175Z,66.35
2023-04-02T23:51:04.863Z,67.43
2023-04-02T23:53:31.809Z,67.09
2023-04-02T23:55:58.290Z,66.45
2023-04-02T23:58:24.751Z,65.97
